Time;durP1;ratioP1;P1;durP2;ratioP2;P2;SDS_P1;SDS_P2;PMS_P1;PMS_P2;Temp;Humidity;BMP_temperature;BMP_pressure;BME280_temperature;BME280_humidity;BME280_pressure;Samples;Min_cycle;Max_cycle;Signal;HPM_P1;HPM_P2
2022/05/22 00:00:21;;;;;;;;;;;;;;;19.37;58.50;101727.59;1037046;28;742;-59
2022/05/22 00:01:11;;;;;;;;;;;;;;;19.37;59.31;101723.06;1036903;28;633;-59
2022/05/22 00:02:02;;;;;;;;;;;;;;;19.34;58.54;101722.50;1036935;28;646;-59
2022/05/22 00:02:53;;;;;;;;;;;;;;;19.35;58.26;101718.78;1036470;28;682;-59
2022/05/22 00:03:43;;;;;;;;;;;;;;;19.32;59.10;101719.94;1035864;28;1879;-59
2022/05/22 00:04:33;;;;;;;;;;;;;;;19.32;58.64;101727.19;1032699;28;712;-59
2022/05/22 00:05:24;;;;;;;;;;;;;;;19.31;59.18;101718.22;1033198;28;1960;-59
2022/05/22 00:06:14;;;;;;;;;;;;;;;19.30;58.75;101726.44;1032358;28;682;-59
2022/05/22 00:07:05;;;;;;;;;;;;;;;19.29;58.72;101720.19;1033576;28;712;-59
2022/05/22 00:07:56;;;;;;;;;;;;;;;19.28;59.45;101723.03;1033459;28;1714;-59
2022/05/22 00:08:46;;;;;;;;;;;;;;;19.29;59.26;101730.16;1032521;28;674;-59
2022/05/22 00:09:37;;;;;;;;;;;;;;;19.30;59.18;101718.34;1032224;28;1642;-59
2022/05/22 00:10:27;;;;;;;;;;;;;;;19.29;58.99;101716.63;1032512;28;639;-59
2022/05/22 00:11:17;;;;;;;;;;;;;;;19.29;59.31;101713.94;1032302;28;625;-59
2022/05/22 00:12:08;;;;;;;;;;;;;;;19.28;59.07;101718.47;1033733;28;653;-59
2022/05/22 00:12:58;;;;;;;;;;;;;;;19.28;59.11;101713.06;1033668;28;646;-59
2022/05/22 00:13:49;;;;;;;;;;;;;;;19.27;58.45;101710.50;1035297;28;693;-60
2022/05/22 00:14:39;;;;;;;;;;;;;;;19.27;58.92;101713.19;1037441;28;670;-59
2022/05/22 00:15:29;;;;;;;;;;;;;;;19.27;59.03;101705.09;1034669;28;600;-58
2022/05/22 00:17:29;;;;;;;;;;;;;;;19.24;59.37;101705.34;1032870;28;646;-59
2022/05/22 00:18:20;;;;;;;;;;;;;;;19.24;58.76;101702.66;1033555;28;665;-59
2022/05/22 00:19:10;;;;;;;;;;;;;;;19.23;58.68;101701.81;1033043;28;642;-59
2022/05/22 00:20:00;;;;;;;;;;;;;;;19.24;59.06;101705.34;1028861;28;1627;-59
2022/05/22 00:20:51;;;;;;;;;;;;;;;19.23;58.94;101698.25;1031939;28;654;-59
2022/05/22 00:21:41;;;;;;;;;;;;;;;19.22;58.73;101697.38;1032833;28;704;-59
2022/05/22 00:22:32;;;;;;;;;;;;;;;19.23;59.11;101703.66;1032364;28;689;-59
2022/05/22 00:23:23;;;;;;;;;;;;;;;19.23;58.96;101709.03;1032528;28;705;-59
2022/05/22 00:24:13;;;;;;;;;;;;;;;19.22;58.44;101702.78;1032270;28;643;-60
2022/05/22 00:25:05;;;;;;;;;;;;;;;19.22;59.18;101702.78;1032518;28;646;-60
2022/05/22 00:25:56;;;;;;;;;;;;;;;19.22;58.17;101707.34;1032099;28;611;-59
2022/05/22 00:26:46;;;;;;;;;;;;;;;19.19;59.57;101700.34;1032830;28;673;-59
2022/05/22 00:27:37;;;;;;;;;;;;;;;19.21;59.05;101694.81;1032801;28;694;-59
2022/05/22 00:28:27;;;;;;;;;;;;;;;19.20;59.07;101701.22;1030436;28;642;-60
2022/05/22 00:29:17;;;;;;;;;;;;;;;19.19;59.34;101702.19;1032570;28;690;-60
2022/05/22 00:30:08;;;;;;;;;;;;;;;19.18;58.51;101698.63;1033580;28;645;-60
2022/05/22 00:30:58;;;;;;;;;;;;;;;19.18;58.59;101695.06;1033700;28;712;-61
2022/05/22 00:31:49;;;;;;;;;;;;;;;19.18;59.05;101700.47;1031760;28;685;-59
2022/05/22 00:32:39;;;;;;;;;;;;;;;19.17;59.45;101704.19;1031807;28;659;-60
2022/05/22 00:33:29;;;;;;;;;;;;;;;19.17;59.12;101698.81;1032801;28;628;-60
2022/05/22 00:34:20;;;;;;;;;;;;;;;19.16;58.87;101697.94;1032841;28;634;-60
2022/05/22 00:35:10;;;;;;;;;;;;;;;19.16;58.17;101688.97;1032787;28;647;-60
2022/05/22 00:36:01;;;;;;;;;;;;;;;19.16;58.95;101692.53;1032882;28;1705;-60
2022/05/22 00:36:51;;;;;;;;;;;;;;;19.17;58.96;101694.22;1033383;28;638;-60
2022/05/22 00:37:41;;;;;;;;;;;;;;;19.17;58.68;101694.22;1032789;28;682;-60
2022/05/22 00:38:32;;;;;;;;;;;;;;;19.15;58.69;101698.94;1032912;28;667;-60
2022/05/22 00:39:22;;;;;;;;;;;;;;;19.14;59.04;101696.34;1032849;28;651;-60
2022/05/22 00:40:13;;;;;;;;;;;;;;;19.16;58.74;101697.09;1032866;28;646;-61
2022/05/22 00:41:03;;;;;;;;;;;;;;;19.14;58.74;101689.13;1028385;28;623;-60
2022/05/22 00:41:54;;;;;;;;;;;;;;;19.13;58.67;101692.81;1028032;28;627;-60
2022/05/22 00:42:48;;;;;;;;;;;;;;;19.13;59.16;101692.81;1032368;28;682;-60
2022/05/22 00:43:39;;;;;;;;;;;;;;;19.12;58.59;101695.63;1032738;28;899;-60
2022/05/22 00:44:29;;;;;;;;;;;;;;;19.13;59.02;101697.34;1032875;28;1678;-60
2022/05/22 00:45:19;;;;;;;;;;;;;;;19.12;58.98;101690.22;1036655;28;1955;-60
2022/05/22 00:46:11;;;;;;;;;;;;;;;19.14;58.39;101693.66;1036973;28;610;-60
2022/05/22 00:47:01;;;;;;;;;;;;;;;19.13;58.37;101684.69;1036241;28;618;-60
2022/05/22 00:47:53;;;;;;;;;;;;;;;19.11;58.78;101688.50;1036909;28;666;-60
2022/05/22 00:48:43;;;;;;;;;;;;;;;19.11;59.46;101683.13;1034187;28;1248;-59
2022/05/22 00:49:35;;;;;;;;;;;;;;;19.08;58.15;101685.09;1032269;28;567;-59
2022/05/22 00:50:25;;;;;;;;;;;;;;;19.08;58.88;101682.38;1032367;28;630;-59
2022/05/22 00:51:16;;;;;;;;;;;;;;;19.08;59.00;101684.22;1028847;28;690;-60
2022/05/22 00:52:07;;;;;;;;;;;;;;;19.07;59.04;101680.69;1033108;28;646;-60
2022/05/22 00:52:58;;;;;;;;;;;;;;;19.07;58.41;101683.38;1033425;28;712;-60
2022/05/22 00:53:49;;;;;;;;;;;;;;;19.08;58.67;101678.81;1032798;28;658;-60
2022/05/22 00:54:39;;;;;;;;;;;;;;;19.06;58.59;101684.38;1033937;28;1733;-60
2022/05/22 00:55:30;;;;;;;;;;;;;;;19.05;59.41;101685.34;1036717;28;630;-59
2022/05/22 00:56:20;;;;;;;;;;;;;;;19.04;58.75;101682.78;1036852;28;630;-60
2022/05/22 00:57:10;;;;;;;;;;;;;;;19.05;58.64;101684.50;1036718;28;627;-61
2022/05/22 00:58:01;;;;;;;;;;;;;;;19.03;58.21;101681.06;1036887;28;654;-59
2022/05/22 00:58:51;;;;;;;;;;;;;;;19.04;58.97;101688.19;1036701;28;654;-59
2022/05/22 00:59:42;;;;;;;;;;;;;;;19.05;58.80;101681.78;1036361;28;680;-59
2022/05/22 01:00:33;;;;;;;;;;;;;;;19.03;58.57;101681.94;1036458;28;686;-59
2022/05/22 01:01:24;;;;;;;;;;;;;;;19.02;58.57;101676.66;1036368;28;697;-59
2022/05/22 01:02:15;;;;;;;;;;;;;;;19.03;58.37;101676.53;1036878;28;634;-59
2022/05/22 01:04:14;;;;;;;;;;;;;;;19.03;58.08;101675.66;1033290;28;539;-58
2022/05/22 01:05:05;;;;;;;;;;;;;;;19.02;58.84;101674.81;1032507;28;626;-58
2022/05/22 01:05:55;;;;;;;;;;;;;;;19.01;58.99;101666.84;1032017;28;1135;-59
2022/05/22 01:06:45;;;;;;;;;;;;;;;19.02;58.35;101665.84;1032073;28;682;-59
2022/05/22 01:07:36;;;;;;;;;;;;;;;19.01;58.85;101667.69;1032219;28;651;-60
2022/05/22 01:08:26;;;;;;;;;;;;;;;19.01;58.39;101665.00;1032139;28;695;-59
2022/05/22 01:09:17;;;;;;;;;;;;;;;19.01;58.99;101666.84;1032184;28;616;-59
2022/05/22 01:10:07;;;;;;;;;;;;;;;19.00;58.52;101662.41;1032204;28;627;-59
2022/05/22 01:10:57;;;;;;;;;;;;;;;19.00;59.21;101663.28;1028391;28;693;-59
2022/05/22 01:11:48;;;;;;;;;;;;;;;19.01;58.80;101666.84;1029027;28;659;-59
2022/05/22 01:12:38;;;;;;;;;;;;;;;19.00;58.74;101665.97;1034088;28;1302;-59
2022/05/22 01:13:29;;;;;;;;;;;;;;;19.01;58.01;101666.84;1033201;28;653;-59
2022/05/22 01:14:21;;;;;;;;;;;;;;;19.00;58.28;101657.88;1032692;28;717;-59
2022/05/22 01:15:11;;;;;;;;;;;;;;;18.98;58.81;101657.19;1028896;28;1673;-59
2022/05/22 01:16:01;;;;;;;;;;;;;;;18.98;58.45;101657.19;1027943;28;612;-59
2022/05/22 01:16:52;;;;;;;;;;;;;;;18.99;58.74;101658.00;1032726;28;1487;-59
2022/05/22 01:17:42;;;;;;;;;;;;;;;18.98;58.82;101657.19;1031952;28;1332;-60
2022/05/22 01:18:33;;;;;;;;;;;;;;;18.97;58.37;101658.16;1034084;28;1111;-60
2022/05/22 01:19:23;;;;;;;;;;;;;;;18.96;58.60;101656.47;1034894;28;1506;-60
2022/05/22 01:20:14;;;;;;;;;;;;;;;18.97;58.15;101657.31;1035537;28;1111;-60
2022/05/22 01:21:04;;;;;;;;;;;;;;;18.97;58.87;101657.31;1035067;28;1107;-59
2022/05/22 01:21:54;;;;;;;;;;;;;;;18.97;59.08;101657.31;1033924;28;1534;-60
2022/05/22 01:22:45;;;;;;;;;;;;;;;18.96;58.56;101661.84;1032690;28;1466;-60
2022/05/22 01:23:35;;;;;;;;;;;;;;;18.95;58.90;101665.53;1032964;28;1412;-60
2022/05/22 01:24:26;;;;;;;;;;;;;;;18.93;58.44;101659.41;1034214;28;1084;-60
2022/05/22 01:25:16;;;;;;;;;;;;;;;18.92;58.41;101660.41;1035357;28;1910;-61
2022/05/22 01:26:06;;;;;;;;;;;;;;;18.93;59.41;101669.38;1039729;28;1076;-60
2022/05/22 01:26:57;;;;;;;;;;;;;;;18.92;59.11;101659.56;1039497;28;1099;-60
2022/05/22 01:27:47;;;;;;;;;;;;;;;18.92;58.99;101664.94;1034347;28;625;-60
2022/05/22 01:28:38;;;;;;;;;;;;;;;18.91;58.88;101664.09;1034304;28;678;-60
2022/05/22 01:29:28;;;;;;;;;;;;;;;18.91;58.15;101657.84;1033595;28;1075;-60
2022/05/22 01:30:18;;;;;;;;;;;;;;;18.91;58.24;101655.13;1034605;28;1079;-59
2022/05/22 01:31:09;;;;;;;;;;;;;;;18.91;58.54;101669.50;1032143;28;1080;-60
2022/05/22 01:31:59;;;;;;;;;;;;;;;18.89;58.04;101666.06;1028701;28;1706;-60
2022/05/22 01:32:50;;;;;;;;;;;;;;;18.90;58.16;101665.09;1033087;28;1625;-59
2022/05/22 01:33:40;;;;;;;;;;;;;;;18.90;58.85;101667.78;1036774;28;688;-59
2022/05/22 01:34:30;;;;;;;;;;;;;;;18.89;58.30;101667.91;1036631;28;594;-59
2022/05/22 01:35:21;;;;;;;;;;;;;;;18.90;58.53;101669.63;1036659;28;706;-59
2022/05/22 01:36:11;;;;;;;;;;;;;;;18.88;58.52;101669.75;1036646;28;670;-59
2022/05/22 01:37:02;;;;;;;;;;;;;;;18.88;58.12;101674.31;1036662;28;678;-60
2022/05/22 01:37:52;;;;;;;;;;;;;;;18.88;58.59;101674.31;1036242;28;775;-59
2022/05/22 01:38:43;;;;;;;;;;;;;;;18.87;58.53;101678.84;1036682;28;644;-59
2022/05/22 01:39:33;;;;;;;;;;;;;;;18.87;58.95;101676.16;1036739;28;634;-60
2022/05/22 01:40:23;;;;;;;;;;;;;;;18.86;58.84;101679.84;1037321;28;606;-60
2022/05/22 01:41:14;;;;;;;;;;;;;;;18.86;58.76;101685.25;1036702;28;763;-59
2022/05/22 01:42:04;;;;;;;;;;;;;;;18.85;59.18;101680.81;1036611;28;709;-59
2022/05/22 01:42:55;;;;;;;;;;;;;;;18.85;58.57;101671.88;1036681;28;661;-59
2022/05/22 01:43:45;;;;;;;;;;;;;;;18.84;58.29;101672.84;1036640;28;710;-59
2022/05/22 01:44:36;;;;;;;;;;;;;;;18.84;59.18;101670.16;1036503;28;628;-59
2022/05/22 01:45:26;;;;;;;;;;;;;;;18.85;58.50;101671.88;1032394;28;1894;-60
2022/05/22 01:46:17;;;;;;;;;;;;;;;18.84;59.12;101662.91;1032396;28;618;-59
2022/05/22 01:47:07;;;;;;;;;;;;;;;18.83;59.34;101653.09;1032522;28;1216;-59
2022/05/22 01:47:58;;;;;;;;;;;;;;;18.84;58.52;101653.94;1035308;28;1060;-59
2022/05/22 01:48:48;;;;;;;;;;;;;;;18.84;59.31;101656.66;1031799;28;1773;-59
2022/05/22 01:49:38;;;;;;;;;;;;;;;18.82;58.99;101658.63;1033576;28;1166;-60
2022/05/22 01:50:29;;;;;;;;;;;;;;;18.81;59.43;101656.94;1035083;28;1545;-60
2022/05/22 01:51:19;;;;;;;;;;;;;;;18.81;58.10;101655.06;1035437;28;1080;-60
2022/05/22 01:52:10;;;;;;;;;;;;;;;18.80;58.94;101658.78;1032974;28;1394;-60
2022/05/22 01:53:00;;;;;;;;;;;;;;;18.81;58.29;101660.47;1035713;28;1083;-60
2022/05/22 01:53:51;;;;;;;;;;;;;;;18.81;58.43;101652.34;1035030;28;1261;-60
2022/05/22 01:54:41;;;;;;;;;;;;;;;18.81;58.68;101648.84;1035085;28;1111;-59
2022/05/22 01:55:32;;;;;;;;;;;;;;;18.81;58.52;101644.25;1034680;28;1139;-59
2022/05/22 01:56:22;;;;;;;;;;;;;;;18.82;58.44;101639.72;1035677;28;1080;-60
2022/05/22 01:57:13;;;;;;;;;;;;;;;18.80;58.76;101642.56;1033096;28;1131;-59
2022/05/22 01:58:06;;;;;;;;;;;;;;;18.79;59.07;101650.81;1034963;28;1087;-59
2022/05/22 01:58:57;;;;;;;;;;;;;;;18.79;58.27;101643.56;1031950;28;1522;-59
2022/05/22 01:59:47;;;;;;;;;;;;;;;18.79;58.70;101646.25;1033881;28;1186;-59
2022/05/22 02:00:37;;;;;;;;;;;;;;;18.78;58.81;101641.84;1035253;28;1100;-59
2022/05/22 02:01:28;;;;;;;;;;;;;;;18.76;58.86;101643.81;1035581;28;1154;-59
2022/05/22 02:02:18;;;;;;;;;;;;;;;18.76;59.00;101642.97;1035332;28;1095;-60
2022/05/22 02:03:09;;;;;;;;;;;;;;;18.79;59.01;101643.56;1032976;28;1099;-59
2022/05/22 02:03:59;;;;;;;;;;;;;;;18.78;58.80;101646.41;1032612;28;665;-59
2022/05/22 02:04:50;;;;;;;;;;;;;;;18.76;58.48;101641.13;1032474;28;813;-59
2022/05/22 02:05:43;;;;;;;;;;;;;;;18.76;58.72;101645.66;1032287;28;1898;-59
2022/05/22 02:06:33;;;;;;;;;;;;;;;18.76;59.17;101637.56;1032403;28;757;-59
2022/05/22 02:08:33;;;;;;;;;;;;;;;18.73;58.93;101636.84;1033018;28;712;-59
2022/05/22 02:09:24;;;;;;;;;;;;;;;18.73;58.65;101638.69;1032456;28;618;-59
2022/05/22 02:10:14;;;;;;;;;;;;;;;18.72;58.10;101635.13;1028476;28;623;-59
2022/05/22 02:11:04;;;;;;;;;;;;;;;18.73;58.86;101635.97;1032914;28;633;-59
2022/05/22 02:11:55;;;;;;;;;;;;;;;18.74;58.36;101632.28;1033455;28;1320;-59
2022/05/22 02:12:45;;;;;;;;;;;;;;;18.74;58.22;101632.28;1033697;28;1462;-59
2022/05/22 02:13:36;;;;;;;;;;;;;;;18.72;58.19;101624.31;1032672;28;618;-58
2022/05/22 02:14:26;;;;;;;;;;;;;;;18.72;58.78;101627.03;1036337;28;717;-59
2022/05/22 02:15:17;;;;;;;;;;;;;;;18.71;58.83;101624.47;1032559;28;780;-59
2022/05/22 02:16:07;;;;;;;;;;;;;;;18.69;58.85;101629.13;1033082;28;660;-59
2022/05/22 02:16:58;;;;;;;;;;;;;;;18.69;58.94;101626.44;1030685;28;1508;-59
2022/05/22 02:17:48;;;;;;;;;;;;;;;18.69;58.30;101629.13;1028367;28;1516;-59
2022/05/22 02:18:39;;;;;;;;;;;;;;;18.68;58.37;101617.47;1027194;28;779;-59
2022/05/22 02:19:29;;;;;;;;;;;;;;;18.68;58.04;101622.03;1029562;28;1536;-59
2022/05/22 02:20:19;;;;;;;;;;;;;;;18.68;58.41;101622.03;1031795;28;611;-59
2022/05/22 02:21:10;;;;;;;;;;;;;;;18.69;59.03;101627.28;1028125;28;643;-59
2022/05/22 02:22:00;;;;;;;;;;;;;;;18.68;59.13;101625.56;1027313;28;627;-59
2022/05/22 02:22:51;;;;;;;;;;;;;;;18.68;58.51;101622.03;1032639;28;635;-58
2022/05/22 02:23:41;;;;;;;;;;;;;;;18.66;58.44;101619.44;1032343;28;655;-59
2022/05/22 02:24:32;;;;;;;;;;;;;;;18.67;59.25;101618.47;1035758;28;1745;-58
2022/05/22 02:25:22;;;;;;;;;;;;;;;18.67;58.90;101614.91;1032516;28;1914;-59
2022/05/22 02:26:13;;;;;;;;;;;;;;;18.65;58.51;101615.03;1031995;28;1561;-58
2022/05/22 02:27:05;;;;;;;;;;;;;;;18.65;58.33;101616.88;1032459;28;724;-58
2022/05/22 02:27:55;;;;;;;;;;;;;;;18.66;58.16;101608.66;1033034;28;658;-58
2022/05/22 02:28:45;;;;;;;;;;;;;;;18.66;59.24;101610.50;1032391;28;721;-58
2022/05/22 02:29:36;;;;;;;;;;;;;;;18.64;58.08;101613.31;1032483;28;639;-58
2022/05/22 02:30:27;;;;;;;;;;;;;;;18.64;58.46;101609.75;1033480;28;653;-58
2022/05/22 02:31:17;;;;;;;;;;;;;;;18.64;59.00;101616.03;1031957;28;724;-58
2022/05/22 02:32:07;;;;;;;;;;;;;;;18.64;59.04;101612.47;1034441;28;1806;-59
2022/05/22 02:32:58;;;;;;;;;;;;;;;18.62;58.80;101612.63;1036464;28;622;-59
2022/05/22 02:33:48;;;;;;;;;;;;;;;18.64;58.39;101612.47;1036539;28;891;-59
2022/05/22 02:34:39;;;;;;;;;;;;;;;18.63;58.69;101613.47;1036542;28;615;-59
2022/05/22 02:35:30;;;;;;;;;;;;;;;18.64;58.81;101612.47;1036308;28;717;-59
2022/05/22 02:36:20;;;;;;;;;;;;;;;18.62;58.83;101614.47;1035971;28;662;-59
2022/05/22 02:37:11;;;;;;;;;;;;;;;18.62;58.80;101611.78;1032272;28;697;-59
2022/05/22 02:38:01;;;;;;;;;;;;;;;18.61;59.00;101620.84;1033739;28;670;-59
2022/05/22 02:38:52;;;;;;;;;;;;;;;18.61;58.12;101612.75;1038222;28;677;-59
2022/05/22 02:39:42;;;;;;;;;;;;;;;18.60;58.98;101622.69;1038242;28;610;-60
2022/05/22 02:40:33;;;;;;;;;;;;;;;18.62;58.39;101611.78;1038634;28;613;-59
2022/05/22 02:41:25;;;;;;;;;;;;;;;18.61;58.96;101610.91;1038920;28;638;-60
2022/05/22 02:42:15;;;;;;;;;;;;;;;18.59;58.48;101606.63;1033099;28;1755;-60
2022/05/22 02:43:06;;;;;;;;;;;;;;;18.60;58.28;101608.34;1033231;28;678;-59
2022/05/22 02:43:56;;;;;;;;;;;;;;;18.59;58.19;101603.94;1033036;28;674;-59
2022/05/22 02:44:47;;;;;;;;;;;;;;;18.59;58.98;101603.94;1033009;28;698;-59
2022/05/22 02:45:37;;;;;;;;;;;;;;;18.59;58.47;101602.09;1032845;28;1946;-59
2022/05/22 02:46:28;;;;;;;;;;;;;;;18.59;58.92;101606.63;1033102;28;630;-59
2022/05/22 02:47:18;;;;;;;;;;;;;;;18.57;58.93;101603.16;1033136;28;634;-59
2022/05/22 02:48:09;;;;;;;;;;;;;;;18.59;58.61;101596.69;1033009;28;669;-60
2022/05/22 02:48:59;;;;;;;;;;;;;;;18.58;58.51;101610.28;1032614;28;674;-59
2022/05/22 02:49:50;;;;;;;;;;;;;;;18.57;58.56;101606.72;1032143;28;651;-59
2022/05/22 02:50:41;;;;;;;;;;;;;;;18.57;58.87;101608.56;1035478;28;1713;-58
2022/05/22 02:51:32;;;;;;;;;;;;;;;18.57;58.09;101609.44;1036545;28;686;-59
2022/05/22 02:52:22;;;;;;;;;;;;;;;18.56;58.41;101613.13;1037300;28;697;-58
2022/05/22 02:53:12;;;;;;;;;;;;;;;18.54;58.99;101609.69;1037256;28;737;-58
2022/05/22 02:54:03;;;;;;;;;;;;;;;18.56;58.57;101617.66;1037247;28;622;-59
2022/05/22 02:54:53;;;;;;;;;;;;;;;18.56;58.88;101609.56;1037324;28;678;-58
2022/05/22 02:55:44;;;;;;;;;;;;;;;18.53;58.33;101607.13;1032855;28;636;-59
2022/05/22 02:56:35;;;;;;;;;;;;;;;18.53;58.18;101601.72;1036217;28;690;-58
2022/05/22 02:57:25;;;;;;;;;;;;;;;18.53;58.73;101604.41;1036825;28;564;-58
2022/05/22 02:58:15;;;;;;;;;;;;;;;18.52;58.42;101600.00;1037297;28;669;-58
2022/05/22 02:59:06;;;;;;;;;;;;;;;18.54;58.82;101604.28;1037177;28;949;-58
2022/05/22 02:59:56;;;;;;;;;;;;;;;18.52;58.29;101598.16;1037312;28;701;-58
2022/05/22 03:00:47;;;;;;;;;;;;;;;18.52;58.57;101600.00;1033837;28;1801;-58
2022/05/22 03:01:37;;;;;;;;;;;;;;;18.52;58.15;101600.88;1032631;28;793;-59
2022/05/22 03:02:28;;;;;;;;;;;;;;;18.51;58.00;101598.28;1032424;28;614;-59
2022/05/22 03:03:18;;;;;;;;;;;;;;;18.51;57.94;101603.69;1032639;28;654;-59
2022/05/22 03:04:08;;;;;;;;;;;;;;;18.50;59.08;101597.44;1033113;28;678;-59
2022/05/22 03:04:59;;;;;;;;;;;;;;;18.50;58.47;101591.19;1032670;28;686;-59
2022/05/22 03:06:59;;;;;;;;;;;;;;;18.51;58.80;101599.16;1033582;28;638;-59
2022/05/22 03:07:49;;;;;;;;;;;;;;;18.50;59.05;101591.19;1032686;28;717;-59
2022/05/22 03:08:39;;;;;;;;;;;;;;;18.49;58.20;101593.03;1032187;28;705;-59
2022/05/22 03:09:30;;;;;;;;;;;;;;;18.50;58.12;101596.59;1033900;28;630;-59
2022/05/22 03:10:24;;;;;;;;;;;;;;;18.49;58.54;101595.72;1035373;28;1756;-59
2022/05/22 03:11:15;;;;;;;;;;;;;;;18.49;58.64;101589.47;1037191;28;607;-58
2022/05/22 03:12:05;;;;;;;;;;;;;;;18.50;58.56;101593.88;1036868;28;639;-58
2022/05/22 03:12:56;;;;;;;;;;;;;;;18.48;58.78;101595.84;1036452;28;739;-58
2022/05/22 03:13:47;;;;;;;;;;;;;;;18.49;58.65;101600.25;1037004;28;615;-59
2022/05/22 03:14:37;;;;;;;;;;;;;;;18.47;58.60;101603.09;1037100;28;563;-59
2022/05/22 03:15:28;;;;;;;;;;;;;;;18.48;58.91;101601.25;1037377;28;666;-58
2022/05/22 03:16:19;;;;;;;;;;;;;;;18.47;58.12;101597.69;1037150;28;643;-59
2022/05/22 03:17:09;;;;;;;;;;;;;;;18.48;58.36;101602.09;1037220;28;610;-58
2022/05/22 03:18:00;;;;;;;;;;;;;;;18.45;59.01;101598.84;1037439;28;638;-58
2022/05/22 03:18:50;;;;;;;;;;;;;;;18.46;58.22;101598.69;1037381;28;630;-59
2022/05/22 03:19:41;;;;;;;;;;;;;;;18.47;58.64;101599.53;1037014;28;610;-59
2022/05/22 03:20:31;;;;;;;;;;;;;;;18.45;58.54;101596.16;1034388;28;1677;-59
2022/05/22 03:21:21;;;;;;;;;;;;;;;18.44;58.83;101597.13;1032624;28;674;-59
2022/05/22 03:22:12;;;;;;;;;;;;;;;18.43;58.66;101590.88;1032556;28;616;-59
2022/05/22 03:23:02;;;;;;;;;;;;;;;18.44;58.94;101592.59;1032619;28;624;-59
2022/05/22 03:23:53;;;;;;;;;;;;;;;18.45;58.93;101585.34;1032382;28;623;-58
2022/05/22 03:24:43;;;;;;;;;;;;;;;18.44;59.05;101591.72;1033028;28;859;-59
2022/05/22 03:25:33;;;;;;;;;;;;;;;18.43;58.36;101590.03;1032259;28;1907;-59
2022/05/22 03:26:24;;;;;;;;;;;;;;;18.43;58.07;101596.28;1032584;28;664;-59
2022/05/22 03:27:14;;;;;;;;;;;;;;;18.43;58.96;101590.03;1032729;28;709;-59
2022/05/22 03:28:05;;;;;;;;;;;;;;;18.43;58.38;101584.63;1032507;28;622;-59
2022/05/22 03:28:55;;;;;;;;;;;;;;;18.42;58.28;101591.00;1032616;28;704;-59
2022/05/22 03:29:46;;;;;;;;;;;;;;;18.42;58.97;101593.72;1032281;28;628;-59
2022/05/22 03:30:36;;;;;;;;;;;;;;;18.43;58.67;101596.28;1032560;28;704;-59
2022/05/22 03:31:26;;;;;;;;;;;;;;;18.42;58.39;101593.72;1032440;28;634;-59
2022/05/22 03:32:17;;;;;;;;;;;;;;;18.41;58.35;101592.84;1033320;28;955;-59
2022/05/22 03:33:07;;;;;;;;;;;;;;;18.42;58.39;101594.56;1032847;28;705;-59
2022/05/22 03:33:58;;;;;;;;;;;;;;;18.39;57.97;101589.41;1032350;28;685;-59
2022/05/22 03:34:48;;;;;;;;;;;;;;;18.41;58.65;101587.44;1033290;28;696;-59
2022/05/22 03:35:38;;;;;;;;;;;;;;;18.38;58.60;101585.00;1033556;28;693;-59
2022/05/22 03:36:29;;;;;;;;;;;;;;;18.39;58.43;101584.03;1033506;28;670;-59
2022/05/22 03:37:19;;;;;;;;;;;;;;;18.38;58.62;101583.16;1033641;28;607;-59
2022/05/22 03:38:10;;;;;;;;;;;;;;;18.36;58.83;101579.75;1033037;28;615;-59
2022/05/22 03:39:00;;;;;;;;;;;;;;;18.37;58.42;101583.28;1033590;28;670;-59
2022/05/22 03:39:51;;;;;;;;;;;;;;;18.36;58.48;101590.53;1033480;28;641;-59
2022/05/22 03:40:41;;;;;;;;;;;;;;;18.35;59.02;101583.44;1033149;28;661;-59
2022/05/22 03:41:32;;;;;;;;;;;;;;;18.38;58.13;101582.31;1033566;28;737;-59
2022/05/22 03:42:24;;;;;;;;;;;;;;;18.38;58.40;101583.16;1032580;28;639;-59
2022/05/22 03:43:14;;;;;;;;;;;;;;;18.39;58.50;101581.31;1030086;28;669;-59
2022/05/22 03:44:08;;;;;;;;;;;;;;;18.37;58.46;101591.41;1032733;28;665;-58
2022/05/22 03:44:58;;;;;;;;;;;;;;;18.37;58.53;101588.69;1033591;28;653;-59
2022/05/22 03:45:49;;;;;;;;;;;;;;;18.37;58.44;101586.84;1032264;28;634;-59
2022/05/22 03:46:39;;;;;;;;;;;;;;;18.34;58.17;101584.41;1033032;28;736;-59
2022/05/22 03:47:30;;;;;;;;;;;;;;;18.36;58.01;101581.59;1033581;28;743;-59
2022/05/22 03:48:20;;;;;;;;;;;;;;;18.36;58.85;101584.28;1030190;28;693;-59
2022/05/22 03:49:11;;;;;;;;;;;;;;;18.37;58.25;101576.06;1032634;28;622;-59
2022/05/22 03:50:04;;;;;;;;;;;;;;;18.34;57.96;101581.72;1033338;28;1733;-59
2022/05/22 03:50:55;;;;;;;;;;;;;;;18.35;58.27;101580.72;1034265;28;694;-59
2022/05/22 03:51:45;;;;;;;;;;;;;;;18.34;58.55;101579.00;1034197;28;681;-59
2022/05/22 03:52:36;;;;;;;;;;;;;;;18.35;58.12;101572.63;1037152;28;669;-59
2022/05/22 03:53:26;;;;;;;;;;;;;;;18.37;57.71;101569.81;1036883;28;661;-58
2022/05/22 03:54:16;;;;;;;;;;;;;;;18.35;58.17;101569.06;1033455;28;748;-59
2022/05/22 03:55:07;;;;;;;;;;;;;;;18.36;58.48;101577.03;1032194;28;702;-59
2022/05/22 03:55:57;;;;;;;;;;;;;;;18.36;58.80;101570.78;1032440;28;712;-59
2022/05/22 03:56:48;;;;;;;;;;;;;;;18.34;58.13;101575.47;1032267;28;638;-59
2022/05/22 03:57:39;;;;;;;;;;;;;;;18.35;58.41;101575.34;1032934;28;678;-59
2022/05/22 03:58:29;;;;;;;;;;;;;;;18.33;58.49;101574.59;1032455;28;698;-59
2022/05/22 03:59:19;;;;;;;;;;;;;;;18.34;58.01;101576.31;1032500;28;670;-59
2022/05/22 04:00:10;;;;;;;;;;;;;;;18.32;58.01;101572.88;1032323;28;1595;-59
2022/05/22 04:01:00;;;;;;;;;;;;;;;18.32;58.65;101572.03;1032333;28;666;-59
2022/05/22 04:01:51;;;;;;;;;;;;;;;18.34;58.39;101576.31;1032940;28;622;-59
2022/05/22 04:02:41;;;;;;;;;;;;;;;18.34;57.77;101573.63;1032983;28;670;-59
2022/05/22 04:03:32;;;;;;;;;;;;;;;18.33;57.91;101571.91;1031671;28;624;-59
2022/05/22 04:04:22;;;;;;;;;;;;;;;18.32;58.72;101570.19;1033214;28;669;-59
2022/05/22 04:05:13;;;;;;;;;;;;;;;18.31;58.65;101565.78;1031111;28;607;-59
2022/05/22 04:06:03;;;;;;;;;;;;;;;18.32;58.38;101570.19;1032804;28;1101;-59
2022/05/22 04:06:53;;;;;;;;;;;;;;;18.33;58.71;101562.94;1033702;28;642;-58
2022/05/22 04:07:44;;;;;;;;;;;;;;;18.31;58.24;101560.38;1029138;28;642;-58
2022/05/22 04:08:34;;;;;;;;;;;;;;;18.31;57.90;101559.53;1029173;28;685;-58
2022/05/22 04:09:25;;;;;;;;;;;;;;;18.30;58.00;101558.66;1030388;28;690;-58
2022/05/22 04:10:15;;;;;;;;;;;;;;;18.31;57.95;101565.78;1033552;28;712;-59
2022/05/22 04:11:05;;;;;;;;;;;;;;;18.32;58.49;101566.63;1033473;28;638;-59
2022/05/22 04:11:56;;;;;;;;;;;;;;;18.33;58.26;101569.22;1029394;28;1682;-59
2022/05/22 04:12:46;;;;;;;;;;;;;;;18.32;58.17;101567.50;1029125;28;652;-59
2022/05/22 04:13:37;;;;;;;;;;;;;;;18.32;58.04;101567.50;1033346;28;658;-60
2022/05/22 04:14:27;;;;;;;;;;;;;;;18.32;58.54;101564.78;1032482;28;698;-59
2022/05/22 04:15:18;;;;;;;;;;;;;;;18.32;58.74;101564.78;1032115;28;620;-60
2022/05/22 04:16:09;;;;;;;;;;;;;;;18.32;57.69;101567.50;1032767;28;717;-59
2022/05/22 04:16:59;;;;;;;;;;;;;;;18.33;58.08;101568.34;1032207;28;670;-59
2022/05/22 04:17:49;;;;;;;;;;;;;;;18.32;58.56;101564.78;1032306;28;690;-59
2022/05/22 04:18:41;;;;;;;;;;;;;;;18.32;57.96;101564.78;1032200;28;638;-59
2022/05/22 04:19:31;;;;;;;;;;;;;;;18.32;57.83;101559.41;1032817;28;710;-59
2022/05/22 04:20:22;;;;;;;;;;;;;;;18.33;58.49;101566.50;1028625;28;654;-59
2022/05/22 04:21:13;;;;;;;;;;;;;;;18.32;58.69;101567.50;1029081;28;646;-59
2022/05/22 04:22:03;;;;;;;;;;;;;;;18.31;58.56;101562.22;1029253;28;752;-59
2022/05/22 04:25:11;;;;;;;;;;;;;;;18.31;58.59;101568.47;1032856;28;630;-59
2022/05/22 04:26:02;;;;;;;;;;;;;;;18.31;58.35;101564.94;1033319;28;614;-60
2022/05/22 04:26:52;;;;;;;;;;;;;;;18.31;58.01;101560.38;1033398;28;659;-60
2022/05/22 04:27:43;;;;;;;;;;;;;;;18.31;58.24;101565.78;1033396;28;634;-59
2022/05/22 04:28:33;;;;;;;;;;;;;;;18.31;57.58;101565.78;1033437;28;725;-59
2022/05/22 04:29:24;;;;;;;;;;;;;;;18.30;57.89;101564.06;1033376;28;674;-60
2022/05/22 04:30:18;;;;;;;;;;;;;;;18.30;58.76;101561.38;1033257;28;681;-59
2022/05/22 04:31:08;;;;;;;;;;;;;;;18.30;58.66;101560.50;1032775;28;666;-59
2022/05/22 04:31:58;;;;;;;;;;;;;;;18.30;58.41;101558.66;1032699;28;735;-59
2022/05/22 04:32:49;;;;;;;;;;;;;;;18.30;58.72;101557.81;1033396;28;694;-60